Time;durP1;ratioP1;P1;durP2;ratioP2;P2;SDS_P1;SDS_P2;PMS_P1;PMS_P2;Temp;Humidity;BMP_temperature;BMP_pressure;BME280_temperature;BME280_humidity;BME280_pressure;Samples;Min_cycle;Max_cycle;Signal;HPM_P1;HPM_P2
2022/08/28 00:01:08;;;;;;;4.15;1.40;;;23.50;59.70;;;;;;20578488;28;20365;-80
2022/08/28 00:11:08;;;;;;;4.82;1.60;;;23.40;59.50;;;;;;20578211;28;20389;-80
2022/08/28 00:21:09;;;;;;;5.57;1.35;;;23.40;59.50;;;;;;20574850;28;20513;-82
2022/08/28 00:31:12;;;;;;;3.83;1.50;;;23.40;59.40;;;;;;20592042;28;20063;-80
2022/08/28 00:41:12;;;;;;;6.00;1.80;;;23.40;59.30;;;;;;20574024;28;20290;-81
2022/08/28 01:01:32;;;;;;;5.40;1.35;;;23.30;59.10;;;;;;20576283;28;20090;-80
2022/08/28 01:11:33;;;;;;;2.78;1.35;;;23.30;59.10;;;;;;20572511;28;20042;-81
2022/08/28 01:21:43;;;;;;;3.63;1.42;;;23.30;59.00;;;;;;20917682;23;20043;-80
2022/08/28 01:31:44;;;;;;;7.85;2.03;;;23.30;59.00;;;;;;20555851;28;20050;-80
2022/08/28 01:41:46;;;;;;;5.32;1.90;;;23.30;58.90;;;;;;20569626;28;20042;-80
2022/08/28 01:51:46;;;;;;;5.20;1.77;;;23.30;58.80;;;;;;20537787;28;20478;-80
2022/08/28 02:01:47;;;;;;;4.88;1.65;;;23.20;58.70;;;;;;20585493;28;20117;-80
2022/08/28 02:11:47;;;;;;;4.35;1.70;;;23.20;58.70;;;;;;20552453;28;20053;-80
2022/08/28 02:21:48;;;;;;;5.82;1.77;;;23.20;58.60;;;;;;20552038;28;20047;-80
2022/08/28 02:31:49;;;;;;;5.68;1.50;;;23.20;58.60;;;;;;20548583;28;20042;-81
2022/08/28 02:41:49;;;;;;;4.07;1.60;;;23.10;58.40;;;;;;20501475;29;20126;-80
2022/08/28 02:51:50;;;;;;;5.18;1.60;;;23.10;58.40;;;;;;20487241;28;20040;-80
2022/08/28 03:01:50;;;;;;;5.57;2.03;;;23.10;58.30;;;;;;20489829;28;20087;-80
2022/08/28 03:11:54;;;;;;;3.53;1.60;;;23.00;58.20;;;;;;20501016;29;20499;-80
2022/08/28 03:21:54;;;;;;;4.22;2.03;;;23.00;58.10;;;;;;20516089;28;20075;-80
2022/08/28 03:31:55;;;;;;;5.03;1.75;;;23.10;58.20;;;;;;20484037;29;20126;-80
2022/08/28 03:41:55;;;;;;;5.97;3.00;;;23.00;58.10;;;;;;20515373;29;20035;-80
2022/08/28 03:51:56;;;;;;;5.07;2.05;;;22.90;58.00;;;;;;20482594;29;20035;-81
2022/08/28 04:01:57;;;;;;;5.53;2.20;;;22.90;57.90;;;;;;20515717;29;20059;-80
2022/08/28 04:11:57;;;;;;;5.05;1.98;;;23.00;57.90;;;;;;20497147;28;20122;-80
2022/08/28 04:21:59;;;;;;;3.88;1.90;;;22.90;57.80;;;;;;20497292;28;20046;-81
2022/08/28 04:31:59;;;;;;;6.38;1.92;;;22.90;57.80;;;;;;20479410;29;20098;-80
2022/08/28 04:42:00;;;;;;;5.65;1.70;;;22.90;57.70;;;;;;20495502;29;20045;-82
2022/08/28 04:52:02;;;;;;;4.50;1.92;;;22.80;57.70;;;;;;20550823;28;20030;-80
2022/08/28 05:02:04;;;;;;;4.35;2.08;;;22.80;57.60;;;;;;20556691;28;20493;-80
2022/08/28 05:12:05;;;;;;;4.05;1.80;;;22.70;57.50;;;;;;20556386;28;20035;-81
2022/08/28 05:22:05;;;;;;;5.22;2.05;;;22.70;57.50;;;;;;20571477;28;20039;-81
2022/08/28 05:32:06;;;;;;;5.88;1.77;;;22.70;57.50;;;;;;20571643;28;20111;-80
2022/08/28 05:42:07;;;;;;;4.30;2.03;;;22.70;57.50;;;;;;20554113;28;20039;-81
2022/08/28 05:52:07;;;;;;;5.82;2.33;;;22.70;57.50;;;;;;20552513;28;20056;-78
2022/08/28 06:02:08;;;;;;;5.07;2.67;;;22.70;57.50;;;;;;20563187;28;20043;-81
2022/08/28 06:12:09;;;;;;;3.95;1.83;;;22.70;57.50;;;;;;20546696;28;20047;-79
2022/08/28 06:22:11;;;;;;;5.28;1.98;;;22.70;57.50;;;;;;20565255;28;20065;-76
2022/08/28 06:32:12;;;;;;;5.68;1.95;;;22.60;57.50;;;;;;20567149;28;20508;-83
2022/08/28 06:42:12;;;;;;;4.60;1.92;;;22.60;57.50;;;;;;20550857;28;20066;-81
2022/08/28 06:52:13;;;;;;;3.95;2.00;;;22.60;57.50;;;;;;20545684;28;20035;-80
2022/08/28 07:02:14;;;;;;;5.93;2.40;;;22.60;57.50;;;;;;20544544;28;20039;-81
2022/08/28 07:12:15;;;;;;;4.75;2.00;;;22.60;57.50;;;;;;20564015;28;20042;-88
2022/08/28 07:22:15;;;;;;;8.73;2.13;;;22.60;57.50;;;;;;20550780;28;20608;-83
2022/08/28 07:32:16;;;;;;;5.97;2.08;;;22.60;57.60;;;;;;20555012;28;20114;-80
2022/08/28 07:52:36;;;;;;;3.85;1.65;;;22.70;57.80;;;;;;20513178;28;20142;-87
2022/08/28 08:02:37;;;;;;;7.55;1.92;;;22.60;57.80;;;;;;20468196;29;20031;-83
2022/08/28 08:12:37;;;;;;;5.45;1.70;;;22.60;57.80;;;;;;20482625;29;20082;-83
2022/08/28 08:22:38;;;;;;;5.25;2.10;;;22.60;57.90;;;;;;20512649;28;20035;-84
2022/08/28 08:32:38;;;;;;;4.57;1.52;;;22.60;57.90;;;;;;20482154;29;20453;-84
2022/08/28 08:42:39;;;;;;;3.67;2.00;;;22.50;57.90;;;;;;20497157;29;20051;-83
2022/08/28 08:53:11;;;;;;;5.40;1.40;;;22.60;57.90;;;;;;20480933;29;20322;-84
2022/08/28 09:03:14;;;;;;;4.15;2.20;;;22.60;57.90;;;;;;20494168;28;20389;-75
2022/08/28 09:13:37;;;;;;;3.15;1.73;;;22.60;57.80;;;;;;20537843;28;20030;-76
2022/08/28 09:23:38;;;;;;;3.28;1.77;;;22.50;57.70;;;;;;20556673;28;20493;-83
2022/08/28 09:33:50;;;;;;;6.55;1.92;;;22.60;57.70;;;;;;20541289;28;20042;-82
2022/08/28 09:43:50;;;;;;;8.43;1.95;;;22.50;57.20;;;;;;20540099;28;20038;-83
2022/08/28 09:53:51;;;;;;;8.38;2.13;;;22.50;56.80;;;;;;20572310;28;20061;-78
2022/08/28 10:04:12;;;;;;;5.53;1.48;;;22.50;56.60;;;;;;20587747;28;20508;-76
2022/08/28 10:14:47;;;;;;;4.63;1.80;;;22.50;56.60;;;;;;20563517;28;20049;-78
2022/08/28 10:25:08;;;;;;;4.32;1.58;;;22.50;56.50;;;;;;20546731;28;20125;-75
2022/08/28 10:35:18;;;;;;;5.90;1.52;;;22.60;56.60;;;;;;20577315;28;20039;-75
2022/08/28 10:45:21;;;;;;;6.47;1.80;;;22.50;56.50;;;;;;20584147;28;20038;-76
2022/08/28 10:55:42;;;;;;;5.93;1.90;;;22.50;56.50;;;;;;20570367;28;20093;-74
2022/08/28 11:05:52;;;;;;;4.22;1.52;;;22.50;56.40;;;;;;20501702;28;20178;-77
2022/08/28 11:15:53;;;;;;;4.00;1.48;;;22.50;56.40;;;;;;20482449;29;20039;-82
2022/08/28 11:25:57;;;;;;;5.30;1.60;;;22.50;56.20;;;;;;20510386;28;20097;-79
2022/08/28 11:35:58;;;;;;;6.77;1.60;;;22.50;56.10;;;;;;20577389;28;20102;-85
2022/08/28 11:45:58;;;;;;;5.20;1.75;;;22.50;56.00;;;;;;20517285;28;20042;-77
2022/08/28 11:56:23;;;;;;;9.88;2.30;;;22.50;55.80;;;;;;20581912;28;20393;-75
2022/08/28 12:06:53;;;;;;;6.32;1.40;;;22.50;55.50;;;;;;20557199;28;20106;-75
2022/08/28 12:17:00;;;;;;;3.72;1.65;;;22.40;55.10;;;;;;20551675;28;20039;-76
2022/08/28 12:27:01;;;;;;;4.05;1.25;;;22.50;55.10;;;;;;20533748;28;20047;-77
2022/08/28 12:37:03;;;;;;;3.00;1.48;;;22.40;55.00;;;;;;20496977;28;20445;-75
2022/08/28 12:47:04;;;;;;;4.60;1.48;;;22.40;55.00;;;;;;20475607;28;20062;-75
2022/08/28 12:57:07;;;;;;;3.65;1.65;;;22.40;55.00;;;;;;20494435;28;20059;-76
2022/08/28 13:07:12;;;;;;;3.30;1.15;;;22.40;55.60;;;;;;20489603;29;20191;-77
2022/08/28 13:17:13;;;;;;;2.75;1.55;;;22.40;54.90;;;;;;20458029;29;20477;-75
2022/08/28 13:27:14;;;;;;;6.22;1.90;;;22.50;54.70;;;;;;20491266;29;20042;-76
2022/08/28 13:37:42;;;;;;;2.67;1.20;;;22.50;54.60;;;;;;20505189;28;20063;-75
2022/08/28 13:47:42;;;;;;;3.67;1.45;;;22.50;54.60;;;;;;20489460;28;20501;-74
2022/08/28 13:57:43;;;;;;;3.88;1.10;;;22.50;54.30;;;;;;20505172;28;20133;-75
2022/08/28 14:07:43;;;;;;;8.73;1.80;;;22.60;54.10;;;;;;20486975;29;20160;-74
2022/08/28 14:17:44;;;;;;;2.67;1.23;;;22.60;53.80;;;;;;20468099;29;20039;-76
2022/08/28 14:27:44;;;;;;;2.88;1.23;;;22.60;53.80;;;;;;20467768;29;20031;-75
2022/08/28 14:37:45;;;;;;;6.68;1.38;;;22.70;53.90;;;;;;20487989;29;20067;-83
2022/08/28 14:47:46;;;;;;;6.38;1.85;;;22.80;53.50;;;;;;20466982;29;20336;-76
2022/08/28 14:57:59;;;;;;;5.57;1.88;;;22.90;52.80;;;;;;20487130;28;20167;-82
2022/08/28 15:08:01;;;;;;;5.78;1.45;;;23.00;52.00;;;;;;20539153;28;20378;-81
2022/08/28 15:18:02;;;;;;;5.03;1.50;;;23.20;51.20;;;;;;20579076;28;20031;-84
2022/08/28 15:28:03;;;;;;;4.57;1.67;;;23.20;50.90;;;;;;20518372;28;20405;-78
2022/08/28 15:38:10;;;;;;;4.10;1.80;;;23.50;50.10;;;;;;20529361;28;20118;-79
2022/08/28 15:48:12;;;;;;;5.93;1.80;;;23.50;49.80;;;;;;20511534;29;20047;-76
2022/08/28 15:58:14;;;;;;;6.00;1.73;;;23.60;50.00;;;;;;20494991;28;20498;-77
2022/08/28 16:08:15;;;;;;;6.88;2.17;;;23.60;50.50;;;;;;20510156;28;20127;-80
2022/08/28 16:18:17;;;;;;;8.77;1.93;;;23.60;50.20;;;;;;20572595;28;20121;-77
2022/08/28 16:28:18;;;;;;;6.43;1.70;;;23.60;50.00;;;;;;20542243;28;20084;-79
2022/08/28 16:38:18;;;;;;;5.80;1.98;;;23.60;50.10;;;;;;20558119;28;20069;-80
2022/08/28 16:48:20;;;;;;;3.85;1.60;;;23.60;50.20;;;;;;20477677;29;20114;-80
2022/08/28 16:58:20;;;;;;;7.30;2.17;;;23.60;50.40;;;;;;20492261;29;20050;-79
2022/08/28 17:08:21;;;;;;;3.22;1.73;;;23.60;50.40;;;;;;20491251;29;20039;-80
2022/08/28 17:18:22;;;;;;;4.03;1.80;;;23.50;50.50;;;;;;20536815;28;20567;-77
2022/08/28 17:28:22;;;;;;;6.20;1.83;;;23.40;50.70;;;;;;20584296;28;20301;-79
2022/08/28 17:38:23;;;;;;;5.43;2.35;;;23.40;50.80;;;;;;20550602;28;20062;-79
2022/08/28 17:48:26;;;;;;;4.78;2.72;;;23.30;50.80;;;;;;20580357;28;20061;-79
2022/08/28 17:58:27;;;;;;;5.07;2.70;;;23.20;50.60;;;;;;20569938;28;20121;-78
2022/08/28 18:08:28;;;;;;;6.78;2.17;;;23.20;50.60;;;;;;20568977;28;20078;-75
2022/08/28 18:18:30;;;;;;;7.45;2.20;;;23.10;50.70;;;;;;20570087;28;20050;-76
2022/08/28 18:28:32;;;;;;;5.60;2.25;;;23.10;50.90;;;;;;20545330;28;20069;-78
2022/08/28 18:38:34;;;;;;;5.88;2.13;;;23.00;51.10;;;;;;20528944;28;20039;-76
2022/08/28 18:48:35;;;;;;;3.60;2.35;;;23.00;51.20;;;;;;20583034;28;20062;-77
2022/08/28 18:58:40;;;;;;;4.97;2.58;;;23.00;51.40;;;;;;20562339;28;20034;-77
2022/08/28 19:08:47;;;;;;;6.30;2.60;;;23.00;52.00;;;;;;20477472;28;20027;-78
2022/08/28 19:18:49;;;;;;;5.78;2.40;;;22.90;51.40;;;;;;20502305;29;20486;-76
2022/08/28 19:28:50;;;;;;;4.60;2.63;;;22.90;51.50;;;;;;20485011;29;20039;-77
2022/08/28 19:38:51;;;;;;;5.40;2.67;;;22.90;51.70;;;;;;20485480;29;20050;-78
2022/08/28 19:48:52;;;;;;;6.05;2.75;;;22.90;51.80;;;;;;20495942;28;20031;-78
2022/08/28 19:58:53;;;;;;;4.93;2.75;;;22.90;51.90;;;;;;20516655;29;20090;-77
2022/08/28 20:08:54;;;;;;;4.20;2.60;;;22.90;52.00;;;;;;20498958;29;20054;-79
2022/08/28 20:18:56;;;;;;;6.03;2.40;;;22.80;52.00;;;;;;20498871;29;20039;-78
2022/08/28 20:28:57;;;;;;;4.22;2.17;;;22.80;52.10;;;;;;20496397;29;20031;-78
2022/08/28 20:38:57;;;;;;;5.25;2.85;;;22.80;52.20;;;;;;20512628;29;20066;-79
2022/08/28 20:48:58;;;;;;;8.00;2.75;;;22.70;52.20;;;;;;20512195;29;20035;-78
2022/08/28 20:58:59;;;;;;;4.10;2.38;;;22.70;52.30;;;;;;20495116;28;20039;-77
2022/08/28 21:08:59;;;;;;;4.93;2.53;;;22.70;52.30;;;;;;20510265;29;20035;-79
2022/08/28 21:19:00;;;;;;;6.10;2.95;;;22.70;52.30;;;;;;20508772;29;20035;-79
2022/08/28 21:29:01;;;;;;;3.15;2.05;;;22.70;52.30;;;;;;20493454;29;20497;-77
2022/08/28 21:39:01;;;;;;;4.85;2.55;;;22.60;52.30;;;;;;20493170;29;20067;-78
2022/08/28 21:49:02;;;;;;;4.10;2.50;;;22.60;52.30;;;;;;20508052;29;20050;-77
2022/08/28 21:59:02;;;;;;;5.45;2.92;;;22.60;52.30;;;;;;20491620;29;20113;-78
2022/08/28 22:09:03;;;;;;;6.32;2.47;;;22.60;52.40;;;;;;20474321;28;20046;-78
2022/08/28 22:19:04;;;;;;;4.65;2.38;;;22.60;52.40;;;;;;20505422;29;20067;-78
2022/08/28 22:29:04;;;;;;;3.70;2.03;;;22.50;52.40;;;;;;20512583;28;20173;-77
2022/08/28 22:39:05;;;;;;;5.90;2.10;;;22.50;52.40;;;;;;20483218;29;20035;-77
2022/08/28 22:49:05;;;;;;;5.97;2.58;;;22.50;52.40;;;;;;20505113;29;20046;-78
2022/08/28 22:59:07;;;;;;;6.93;2.25;;;22.50;52.50;;;;;;20488864;29;20059;-77
2022/08/28 23:09:07;;;;;;;3.97;1.90;;;22.50;52.50;;;;;;20486568;29;20042;-79
2022/08/28 23:19:08;;;;;;;3.80;2.45;;;22.40;52.40;;;;;;20491980;28;20035;-79
2022/08/28 23:29:09;;;;;;;3.45;2.25;;;22.40;52.40;;;;;;20521437;28;20042;-79
2022/08/28 23:39:10;;;;;;;4.70;2.10;;;22.40;52.50;;;;;;20501313;29;20035;-79
2022/08/28 23:49:10;;;;;;;6.05;2.53;;;22.40;52.50;;;;;;20517507;29;20125;-77
2022/08/28 23:59:11;;;;;;;4.93;2.38;;;22.40;52.50;;;;;;20499760;29;20046;-78
